sensor_id;sensor_type;location;lat;lon;timestamp;P1;durP1;ratioP1;P2;durP2;ratioP2
53285;SDS011;39171;45.550;12.074;2023-05-19T00:05:06;1.98;;;1.48;;
53285;SDS011;39171;45.550;12.074;2023-05-19T00:11:10;2.78;;;1.73;;
53285;SDS011;39171;45.550;12.074;2023-05-19T00:17:11;2.08;;;1.67;;
53285;SDS011;39171;45.550;12.074;2023-05-19T00:23:13;2.60;;;1.63;;
53285;SDS011;39171;45.550;12.074;2023-05-19T00:29:14;2.80;;;1.70;;
53285;SDS011;39171;45.550;12.074;2023-05-19T00:35:18;2.72;;;1.90;;
53285;SDS011;39171;45.550;12.074;2023-05-19T00:41:20;2.67;;;1.92;;
53285;SDS011;39171;45.550;12.074;2023-05-19T00:47:22;2.53;;;1.80;;
53285;SDS011;39171;45.550;12.074;2023-05-19T00:53:23;2.40;;;1.80;;
53285;SDS011;39171;45.550;12.074;2023-05-19T00:59:25;3.53;;;1.90;;
53285;SDS011;39171;45.550;12.074;2023-05-19T01:05:27;2.55;;;1.90;;
53285;SDS011;39171;45.550;12.074;2023-05-19T01:11:28;2.50;;;1.77;;
53285;SDS011;39171;45.550;12.074;2023-05-19T01:17:53;2.17;;;1.60;;
53285;SDS011;39171;45.550;12.074;2023-05-19T01:24:21;2.58;;;1.83;;
53285;SDS011;39171;45.550;12.074;2023-05-19T01:30:46;2.47;;;1.75;;
53285;SDS011;39171;45.550;12.074;2023-05-19T01:36:53;2.50;;;1.90;;
53285;SDS011;39171;45.550;12.074;2023-05-19T01:42:57;2.72;;;2.00;;
53285;SDS011;39171;45.550;12.074;2023-05-19T01:49:00;2.60;;;2.00;;
53285;SDS011;39171;45.550;12.074;2023-05-19T01:55:02;2.50;;;2.00;;
53285;SDS011;39171;45.550;12.074;2023-05-19T02:13:43;3.60;;;2.13;;
53285;SDS011;39171;45.550;12.074;2023-05-19T02:19:49;2.30;;;1.80;;
53285;SDS011;39171;45.550;12.074;2023-05-19T02:25:50;2.83;;;2.20;;
53285;SDS011;39171;45.550;12.074;2023-05-19T02:31:52;2.75;;;2.00;;
53285;SDS011;39171;45.550;12.074;2023-05-19T02:37:53;2.70;;;2.08;;
53285;SDS011;39171;45.550;12.074;2023-05-19T02:43:55;3.47;;;2.30;;
53285;SDS011;39171;45.550;12.074;2023-05-19T02:49:56;3.25;;;2.20;;
53285;SDS011;39171;45.550;12.074;2023-05-19T02:55:57;3.00;;;2.30;;
53285;SDS011;39171;45.550;12.074;2023-05-19T03:02:00;2.60;;;2.15;;
53285;SDS011;39171;45.550;12.074;2023-05-19T03:08:02;3.08;;;2.28;;
53285;SDS011;39171;45.550;12.074;2023-05-19T03:14:03;3.22;;;2.05;;
53285;SDS011;39171;45.550;12.074;2023-05-19T03:20:05;3.20;;;2.33;;
53285;SDS011;39171;45.550;12.074;2023-05-19T03:26:07;4.20;;;2.63;;
53285;SDS011;39171;45.550;12.074;2023-05-19T03:32:09;3.50;;;2.33;;
53285;SDS011;39171;45.550;12.074;2023-05-19T03:38:11;3.03;;;2.40;;
53285;SDS011;39171;45.550;12.074;2023-05-19T03:44:13;2.70;;;2.03;;
53285;SDS011;39171;45.550;12.074;2023-05-19T03:50:15;3.22;;;2.45;;
53285;SDS011;39171;45.550;12.074;2023-05-19T03:56:29;2.58;;;1.90;;
53285;SDS011;39171;45.550;12.074;2023-05-19T04:02:33;3.20;;;2.25;;
53285;SDS011;39171;45.550;12.074;2023-05-19T04:08:34;3.17;;;2.33;;
53285;SDS011;39171;45.550;12.074;2023-05-19T04:14:36;3.50;;;2.90;;
53285;SDS011;39171;45.550;12.074;2023-05-19T04:20:38;3.38;;;2.67;;
53285;SDS011;39171;45.550;12.074;2023-05-19T04:26:39;3.85;;;2.85;;
53285;SDS011;39171;45.550;12.074;2023-05-19T04:32:47;3.22;;;2.67;;
53285;SDS011;39171;45.550;12.074;2023-05-19T04:38:50;3.75;;;2.92;;
53285;SDS011;39171;45.550;12.074;2023-05-19T04:44:57;3.80;;;3.10;;
53285;SDS011;39171;45.550;12.074;2023-05-19T04:51:01;3.58;;;2.80;;
53285;SDS011;39171;45.550;12.074;2023-05-19T04:57:04;3.92;;;2.50;;
53285;SDS011;39171;45.550;12.074;2023-05-19T05:03:10;2.65;;;2.38;;
53285;SDS011;39171;45.550;12.074;2023-05-19T05:09:14;3.00;;;2.30;;
53285;SDS011;39171;45.550;12.074;2023-05-19T05:15:17;2.95;;;2.42;;
53285;SDS011;39171;45.550;12.074;2023-05-19T05:21:23;3.28;;;2.47;;
53285;SDS011;39171;45.550;12.074;2023-05-19T05:27:24;2.72;;;2.25;;
53285;SDS011;39171;45.550;12.074;2023-05-19T05:33:27;3.33;;;2.80;;
53285;SDS011;39171;45.550;12.074;2023-05-19T05:39:29;2.88;;;2.35;;
53285;SDS011;39171;45.550;12.074;2023-05-19T05:45:31;2.95;;;2.50;;
53285;SDS011;39171;45.550;12.074;2023-05-19T05:51:35;3.25;;;2.30;;
53285;SDS011;39171;45.550;12.074;2023-05-19T05:57:37;2.75;;;2.10;;
53285;SDS011;39171;45.550;12.074;2023-05-19T06:03:39;2.92;;;2.50;;
53285;SDS011;39171;45.550;12.074;2023-05-19T06:09:43;2.90;;;2.35;;
53285;SDS011;39171;45.550;12.074;2023-05-19T06:15:44;2.60;;;2.00;;
53285;SDS011;39171;45.550;12.074;2023-05-19T06:22:01;2.80;;;2.38;;
53285;SDS011;39171;45.550;12.074;2023-05-19T06:28:04;2.63;;;2.10;;
53285;SDS011;39171;45.550;12.074;2023-05-19T06:34:06;2.10;;;1.58;;
53285;SDS011;39171;45.550;12.074;2023-05-19T06:40:10;2.45;;;1.58;;
53285;SDS011;39171;45.550;12.074;2023-05-19T06:46:14;2.33;;;1.60;;
53285;SDS011;39171;45.550;12.074;2023-05-19T06:52:17;2.05;;;1.65;;
53285;SDS011;39171;45.550;12.074;2023-05-19T06:58:19;2.08;;;1.75;;
53285;SDS011;39171;45.550;12.074;2023-05-19T07:04:20;1.73;;;1.30;;
53285;SDS011;39171;45.550;12.074;2023-05-19T07:10:22;2.03;;;1.67;;
53285;SDS011;39171;45.550;12.074;2023-05-19T07:16:24;1.88;;;1.25;;
53285;SDS011;39171;45.550;12.074;2023-05-19T07:22:27;2.00;;;1.45;;
53285;SDS011;39171;45.550;12.074;2023-05-19T07:28:29;2.03;;;1.50;;
53285;SDS011;39171;45.550;12.074;2023-05-19T07:34:31;1.90;;;1.35;;
53285;SDS011;39171;45.550;12.074;2023-05-19T07:40:32;2.47;;;1.10;;
53285;SDS011;39171;45.550;12.074;2023-05-19T07:46:34;2.33;;;1.63;;
53285;SDS011;39171;45.550;12.074;2023-05-19T07:52:40;1.73;;;1.33;;
53285;SDS011;39171;45.550;12.074;2023-05-19T07:58:42;1.40;;;0.90;;
53285;SDS011;39171;45.550;12.074;2023-05-19T08:04:47;1.33;;;0.90;;
53285;SDS011;39171;45.550;12.074;2023-05-19T08:10:49;1.17;;;0.98;;
53285;SDS011;39171;45.550;12.074;2023-05-19T08:16:50;1.50;;;1.20;;
53285;SDS011;39171;45.550;12.074;2023-05-19T08:22:51;1.58;;;1.10;;
53285;SDS011;39171;45.550;12.074;2023-05-19T08:28:53;1.50;;;1.10;;
53285;SDS011;39171;45.550;12.074;2023-05-19T08:34:56;1.17;;;0.80;;
53285;SDS011;39171;45.550;12.074;2023-05-19T08:40:58;1.10;;;0.90;;
53285;SDS011;39171;45.550;12.074;2023-05-19T08:47:01;1.27;;;1.00;;
53285;SDS011;39171;45.550;12.074;2023-05-19T08:59:23;1.60;;;1.10;;
53285;SDS011;39171;45.550;12.074;2023-05-19T09:05:25;1.85;;;1.10;;
53285;SDS011;39171;45.550;12.074;2023-05-19T09:11:26;2.72;;;1.30;;
53285;SDS011;39171;45.550;12.074;2023-05-19T09:17:28;1.55;;;1.08;;
53285;SDS011;39171;45.550;12.074;2023-05-19T09:23:32;1.60;;;1.10;;
53285;SDS011;39171;45.550;12.074;2023-05-19T09:29:34;1.65;;;0.90;;
53285;SDS011;39171;45.550;12.074;2023-05-19T09:35:35;1.50;;;1.10;;
53285;SDS011;39171;45.550;12.074;2023-05-19T09:41:37;1.75;;;1.13;;
53285;SDS011;39171;45.550;12.074;2023-05-19T09:47:39;2.58;;;1.63;;
53285;SDS011;39171;45.550;12.074;2023-05-19T09:53:41;2.47;;;1.40;;
53285;SDS011;39171;45.550;12.074;2023-05-19T09:59:47;2.10;;;1.27;;
53285;SDS011;39171;45.550;12.074;2023-05-19T10:05:49;1.75;;;1.20;;
53285;SDS011;39171;45.550;12.074;2023-05-19T10:11:53;1.65;;;1.20;;
53285;SDS011;39171;45.550;12.074;2023-05-19T10:17:59;1.75;;;1.20;;
53285;SDS011;39171;45.550;12.074;2023-05-19T10:24:02;1.50;;;1.00;;
53285;SDS011;39171;45.550;12.074;2023-05-19T10:30:08;2.83;;;1.80;;
53285;SDS011;39171;45.550;12.074;2023-05-19T10:36:14;2.65;;;1.30;;
53285;SDS011;39171;45.550;12.074;2023-05-19T10:42:28;1.48;;;1.10;;
53285;SDS011;39171;45.550;12.074;2023-05-19T10:48:45;1.75;;;0.93;;
53285;SDS011;39171;45.550;12.074;2023-05-19T10:54:47;1.58;;;0.90;;
53285;SDS011;39171;45.550;12.074;2023-05-19T11:00:48;1.67;;;1.00;;
53285;SDS011;39171;45.550;12.074;2023-05-19T11:07:01;2.92;;;1.70;;
53285;SDS011;39171;45.550;12.074;2023-05-19T11:13:03;1.90;;;1.10;;
53285;SDS011;39171;45.550;12.074;2023-05-19T11:19:05;2.40;;;1.33;;
53285;SDS011;39171;45.550;12.074;2023-05-19T11:25:07;1.65;;;1.25;;
53285;SDS011;39171;45.550;12.074;2023-05-19T11:31:09;2.00;;;1.15;;
53285;SDS011;39171;45.550;12.074;2023-05-19T11:37:11;1.80;;;1.20;;
53285;SDS011;39171;45.550;12.074;2023-05-19T11:43:12;2.13;;;1.20;;
53285;SDS011;39171;45.550;12.074;2023-05-19T11:49:14;1.55;;;1.10;;
53285;SDS011;39171;45.550;12.074;2023-05-19T11:55:15;1.70;;;1.02;;
53285;SDS011;39171;45.550;12.074;2023-05-19T12:01:18;1.60;;;0.82;;
53285;SDS011;39171;45.550;12.074;2023-05-19T12:07:26;1.48;;;0.95;;
53285;SDS011;39171;45.550;12.074;2023-05-19T12:13:27;1.70;;;1.00;;
53285;SDS011;39171;45.550;12.074;2023-05-19T12:19:29;2.35;;;1.20;;
53285;SDS011;39171;45.550;12.074;2023-05-19T12:25:31;1.92;;;1.05;;
53285;SDS011;39171;45.550;12.074;2023-05-19T12:31:35;1.70;;;0.98;;
53285;SDS011;39171;45.550;12.074;2023-05-19T12:37:39;1.42;;;0.98;;
53285;SDS011;39171;45.550;12.074;2023-05-19T12:43:42;2.33;;;1.05;;
53285;SDS011;39171;45.550;12.074;2023-05-19T12:50:08;1.92;;;1.20;;
53285;SDS011;39171;45.550;12.074;2023-05-19T12:56:13;2.83;;;0.90;;
53285;SDS011;39171;45.550;12.074;2023-05-19T13:02:15;1.75;;;0.88;;
53285;SDS011;39171;45.550;12.074;2023-05-19T13:08:18;2.03;;;1.20;;
53285;SDS011;39171;45.550;12.074;2023-05-19T13:14:23;1.75;;;0.95;;
53285;SDS011;39171;45.550;12.074;2023-05-19T13:20:25;1.35;;;0.88;;
53285;SDS011;39171;45.550;12.074;2023-05-19T13:26:26;1.95;;;1.35;;
53285;SDS011;39171;45.550;12.074;2023-05-19T13:32:28;1.45;;;1.00;;
53285;SDS011;39171;45.550;12.074;2023-05-19T13:38:29;1.90;;;1.20;;
53285;SDS011;39171;45.550;12.074;2023-05-19T13:44:33;2.33;;;1.65;;
53285;SDS011;39171;45.550;12.074;2023-05-19T13:50:38;3.15;;;1.60;;
53285;SDS011;39171;45.550;12.074;2023-05-19T13:56:39;1.75;;;1.30;;
53285;SDS011;39171;45.550;12.074;2023-05-19T14:02:42;1.90;;;1.20;;
53285;SDS011;39171;45.550;12.074;2023-05-19T14:08:44;2.00;;;1.20;;
53285;SDS011;39171;45.550;12.074;2023-05-19T14:14:45;1.63;;;1.05;;
53285;SDS011;39171;45.550;12.074;2023-05-19T14:20:56;1.42;;;1.00;;
53285;SDS011;39171;45.550;12.074;2023-05-19T14:26:57;1.27;;;0.93;;
53285;SDS011;39171;45.550;12.074;2023-05-19T14:32:59;1.48;;;1.00;;
53285;SDS011;39171;45.550;12.074;2023-05-19T14:39:00;2.75;;;1.27;;
53285;SDS011;39171;45.550;12.074;2023-05-19T14:45:02;1.48;;;0.98;;
53285;SDS011;39171;45.550;12.074;2023-05-19T14:51:03;2.75;;;1.48;;
53285;SDS011;39171;45.550;12.074;2023-05-19T14:57:06;3.35;;;1.70;;
53285;SDS011;39171;45.550;12.074;2023-05-19T15:03:08;2.20;;;1.30;;
53285;SDS011;39171;45.550;12.074;2023-05-19T15:09:09;2.55;;;1.45;;
53285;SDS011;39171;45.550;12.074;2023-05-19T15:15:14;2.35;;;1.40;;
53285;SDS011;39171;45.550;12.074;2023-05-19T15:21:23;1.50;;;1.02;;
53285;SDS011;39171;45.550;12.074;2023-05-19T15:27:25;2.00;;;1.30;;
53285;SDS011;39171;45.550;12.074;2023-05-19T15:33:26;1.85;;;1.15;;
53285;SDS011;39171;45.550;12.074;2023-05-19T15:39:28;1.55;;;0.90;;
53285;SDS011;39171;45.550;12.074;2023-05-19T15:45:30;2.78;;;1.70;;
53285;SDS011;39171;45.550;12.074;2023-05-19T15:51:31;2.25;;;1.63;;
53285;SDS011;39171;45.550;12.074;2023-05-19T15:57:33;2.65;;;1.63;;
53285;SDS011;39171;45.550;12.074;2023-05-19T16:03:34;2.63;;;1.60;;
53285;SDS011;39171;45.550;12.074;2023-05-19T16:09:36;1.90;;;1.30;;
53285;SDS011;39171;45.550;12.074;2023-05-19T16:15:37;1.98;;;1.20;;
53285;SDS011;39171;45.550;12.074;2023-05-19T16:21:39;1.50;;;0.90;;
53285;SDS011;39171;45.550;12.074;2023-05-19T16:27:40;1.80;;;1.20;;
53285;SDS011;39171;45.550;12.074;2023-05-19T16:33:41;1.90;;;1.38;;
53285;SDS011;39171;45.550;12.074;2023-05-19T16:39:43;1.98;;;1.20;;
53285;SDS011;39171;45.550;12.074;2023-05-19T16:45:50;2.10;;;1.23;;
53285;SDS011;39171;45.550;12.074;2023-05-19T16:51:51;1.40;;;1.00;;
53285;SDS011;39171;45.550;12.074;2023-05-19T16:57:53;1.60;;;1.17;;
53285;SDS011;39171;45.550;12.074;2023-05-19T17:03:55;1.83;;;1.20;;
53285;SDS011;39171;45.550;12.074;2023-05-19T17:09:56;1.70;;;1.17;;
53285;SDS011;39171;45.550;12.074;2023-05-19T17:16:01;1.70;;;1.20;;
53285;SDS011;39171;45.550;12.074;2023-05-19T17:22:02;1.42;;;1.02;;
53285;SDS011;39171;45.550;12.074;2023-05-19T17:28:04;1.98;;;1.30;;
53285;SDS011;39171;45.550;12.074;2023-05-19T17:34:05;1.25;;;0.70;;
53285;SDS011;39171;45.550;12.074;2023-05-19T17:40:07;1.50;;;1.15;;
53285;SDS011;39171;45.550;12.074;2023-05-19T17:46:09;1.40;;;0.93;;
53285;SDS011;39171;45.550;12.074;2023-05-19T17:52:11;1.70;;;0.90;;
53285;SDS011;39171;45.550;12.074;2023-05-19T17:58:12;1.58;;;1.10;;
53285;SDS011;39171;45.550;12.074;2023-05-19T18:04:14;1.40;;;0.93;;
53285;SDS011;39171;45.550;12.074;2023-05-19T18:10:16;1.42;;;0.90;;
53285;SDS011;39171;45.550;12.074;2023-05-19T18:16:17;1.58;;;1.00;;
53285;SDS011;39171;45.550;12.074;2023-05-19T18:22:19;1.45;;;1.00;;
53285;SDS011;39171;45.550;12.074;2023-05-19T18:28:21;1.92;;;1.20;;
53285;SDS011;39171;45.550;12.074;2023-05-19T18:34:23;1.08;;;0.80;;
53285;SDS011;39171;45.550;12.074;2023-05-19T18:40:24;1.15;;;0.70;;
53285;SDS011;39171;45.550;12.074;2023-05-19T18:46:26;1.27;;;0.70;;
53285;SDS011;39171;45.550;12.074;2023-05-19T18:52:27;1.20;;;0.70;;
53285;SDS011;39171;45.550;12.074;2023-05-19T18:58:30;0.82;;;0.55;;
53285;SDS011;39171;45.550;12.074;2023-05-19T19:04:32;1.17;;;0.65;;
53285;SDS011;39171;45.550;12.074;2023-05-19T19:10:33;0.73;;;0.57;;
53285;SDS011;39171;45.550;12.074;2023-05-19T19:16:40;0.68;;;0.47;;
53285;SDS011;39171;45.550;12.074;2023-05-19T19:22:41;1.13;;;0.65;;
53285;SDS011;39171;45.550;12.074;2023-05-19T19:28:43;1.10;;;0.75;;
53285;SDS011;39171;45.550;12.074;2023-05-19T19:34:45;1.48;;;0.60;;
53285;SDS011;39171;45.550;12.074;2023-05-19T19:40:49;1.17;;;0.77;;
53285;SDS011;39171;45.550;12.074;2023-05-19T19:46:52;1.38;;;0.73;;
53285;SDS011;39171;45.550;12.074;2023-05-19T19:52:53;1.10;;;0.80;;
53285;SDS011;39171;45.550;12.074;2023-05-19T19:58:54;1.10;;;0.70;;
53285;SDS011;39171;45.550;12.074;2023-05-19T20:04:57;1.20;;;0.80;;
53285;SDS011;39171;45.550;12.074;2023-05-19T20:11:01;1.27;;;0.88;;
53285;SDS011;39171;45.550;12.074;2023-05-19T20:17:02;1.92;;;1.25;;
53285;SDS011;39171;45.550;12.074;2023-05-19T20:23:04;1.98;;;1.15;;
53285;SDS011;39171;45.550;12.074;2023-05-19T20:29:05;1.17;;;0.93;;
53285;SDS011;39171;45.550;12.074;2023-05-19T20:35:07;1.60;;;1.10;;
53285;SDS011;39171;45.550;12.074;2023-05-19T20:41:08;1.90;;;1.48;;
53285;SDS011;39171;45.550;12.074;2023-05-19T20:47:10;2.70;;;1.45;;
53285;SDS011;39171;45.550;12.074;2023-05-19T20:53:11;1.40;;;1.10;;
53285;SDS011;39171;45.550;12.074;2023-05-19T20:59:13;1.90;;;1.30;;
53285;SDS011;39171;45.550;12.074;2023-05-19T21:05:14;1.90;;;1.20;;
53285;SDS011;39171;45.550;12.074;2023-05-19T21:11:16;2.13;;;1.25;;
53285;SDS011;39171;45.550;12.074;2023-05-19T21:17:17;1.77;;;1.30;;
53285;SDS011;39171;45.550;12.074;2023-05-19T21:23:20;1.70;;;1.20;;
53285;SDS011;39171;45.550;12.074;2023-05-19T21:29:22;2.65;;;1.63;;
53285;SDS011;39171;45.550;12.074;2023-05-19T21:35:23;1.60;;;1.25;;
53285;SDS011;39171;45.550;12.074;2023-05-19T21:41:27;1.70;;;1.23;;
53285;SDS011;39171;45.550;12.074;2023-05-19T21:47:30;2.58;;;1.48;;
53285;SDS011;39171;45.550;12.074;2023-05-19T21:53:36;1.92;;;1.40;;
53285;SDS011;39171;45.550;12.074;2023-05-19T21:59:38;1.80;;;1.20;;
53285;SDS011;39171;45.550;12.074;2023-05-19T22:05:39;2.33;;;1.50;;
53285;SDS011;39171;45.550;12.074;2023-05-19T22:11:41;2.00;;;1.50;;
53285;SDS011;39171;45.550;12.074;2023-05-19T22:17:42;2.33;;;1.48;;
53285;SDS011;39171;45.550;12.074;2023-05-19T22:23:44;2.47;;;1.50;;
53285;SDS011;39171;45.550;12.074;2023-05-19T22:29:45;2.15;;;1.60;;
53285;SDS011;39171;45.550;12.074;2023-05-19T22:35:47;2.22;;;1.65;;
53285;SDS011;39171;45.550;12.074;2023-05-19T22:41:48;3.22;;;2.58;;
53285;SDS011;39171;45.550;12.074;2023-05-19T22:47:50;4.88;;;3.85;;
53285;SDS011;39171;45.550;12.074;2023-05-19T22:53:51;5.97;;;4.20;;
53285;SDS011;39171;45.550;12.074;2023-05-19T22:59:52;6.13;;;4.50;;
53285;SDS011;39171;45.550;12.074;2023-05-19T23:05:54;6.30;;;4.32;;
53285;SDS011;39171;45.550;12.074;2023-05-19T23:11:55;5.03;;;3.65;;
53285;SDS011;39171;45.550;12.074;2023-05-19T23:17:57;5.35;;;3.50;;
53285;SDS011;39171;45.550;12.074;2023-05-19T23:23:58;4.55;;;3.47;;
53285;SDS011;39171;45.550;12.074;2023-05-19T23:30:00;4.40;;;3.10;;
53285;SDS011;39171;45.550;12.074;2023-05-19T23:36:05;4.38;;;3.00;;
53285;SDS011;39171;45.550;12.074;2023-05-19T23:42:08;4.95;;;3.42;;
53285;SDS011;39171;45.550;12.074;2023-05-19T23:48:09;3.00;;;2.28;;
53285;SDS011;39171;45.550;12.074;2023-05-19T23:54:10;2.97;;;2.33;;
